createdAt,value
2019-04-28T00:00:31.464Z,93.70
2019-04-28T00:04:41.843Z,94.00
2019-04-28T00:08:52.629Z,94.00
2019-04-28T00:13:02.920Z,94.20
2019-04-28T00:17:13.397Z,94.70
2019-04-28T00:21:37.051Z,94.50
2019-04-28T00:26:07.092Z,94.00
2019-04-28T00:30:17.389Z,93.90
2019-04-28T00:34:27.683Z,94.60
2019-04-28T00:38:37.968Z,94.70
2019-04-28T00:42:48.296Z,94.30
2019-04-28T00:47:00.920Z,94.80
2019-04-28T00:51:11.740Z,94.60
2019-04-28T00:55:22.066Z,94.80
2019-04-28T00:59:32.652Z,95.00
2019-04-28T01:03:43.502Z,95.20
2019-04-28T01:07:53.874Z,95.30
2019-04-28T01:12:05.021Z,95.30
2019-04-28T01:16:32.059Z,95.30
2019-04-28T01:20:42.365Z,95.30
2019-04-28T01:24:52.691Z,95.50
2019-04-28T01:29:03.052Z,95.70
2019-04-28T01:33:31.001Z,95.90
2019-04-28T01:37:41.375Z,95.70
2019-04-28T01:41:51.678Z,95.50
2019-04-28T01:46:01.980Z,95.30
2019-04-28T01:50:13.199Z,95.10
2019-04-28T01:54:23.477Z,95.00
2019-04-28T01:58:33.780Z,94.90
2019-04-28T02:02:44.088Z,94.90
2019-04-28T02:06:54.385Z,94.80
2019-04-28T02:11:04.752Z,94.70
2019-04-28T02:15:15.367Z,94.60
2019-04-28T02:19:26.082Z,94.70
2019-04-28T02:23:39.577Z,94.80
2019-04-28T02:27:49.989Z,94.90
2019-04-28T02:32:02.236Z,94.90
2019-04-28T02:36:12.900Z,95.30
2019-04-28T02:40:23.195Z,94.80
2019-04-28T02:44:35.220Z,94.80
2019-04-28T02:48:45.742Z,94.80
2019-04-28T02:53:01.636Z,94.90
2019-04-28T02:57:12.308Z,94.80
2019-04-28T03:01:26.381Z,94.80
2019-04-28T03:05:34.600Z,94.60
2019-04-28T03:09:45.094Z,94.60
2019-04-28T03:13:55.403Z,94.70
2019-04-28T03:18:05.707Z,94.80
2019-04-28T03:22:16.102Z,94.80
2019-04-28T03:26:28.089Z,94.50
2019-04-28T03:30:54.085Z,94.60
2019-04-28T03:35:04.900Z,94.80
2019-04-28T03:39:15.219Z,94.60
2019-04-28T03:43:25.526Z,94.50
2019-04-28T03:47:35.958Z,94.60
2019-04-28T03:51:46.382Z,94.50
2019-04-28T03:55:56.801Z,94.50
2019-04-28T04:00:10.978Z,94.50
2019-04-28T04:04:21.318Z,94.50
2019-04-28T04:08:31.764Z,94.50
2019-04-28T04:12:50.878Z,94.50
2019-04-28T04:17:21.197Z,94.40
2019-04-28T04:21:31.367Z,94.30
2019-04-28T04:25:41.989Z,94.50
2019-04-28T04:29:52.443Z,94.40
2019-04-28T04:34:03.255Z,94.40
2019-04-28T04:38:14.252Z,94.50
2019-04-28T04:42:24.569Z,94.30
2019-04-28T04:46:34.878Z,94.20
2019-04-28T04:50:45.288Z,93.90
2019-04-28T04:54:55.750Z,94.00
2019-04-28T04:59:06.147Z,93.90
2019-04-28T05:03:21.025Z,93.50
2019-04-28T05:07:30.161Z,93.60
2019-04-28T05:11:40.531Z,93.80
2019-04-28T05:15:52.542Z,93.70
2019-04-28T05:20:02.792Z,93.60
2019-04-28T05:24:20.764Z,93.40
2019-04-28T05:28:36.453Z,93.50
2019-04-28T05:32:49.409Z,93.30
2019-04-28T05:36:54.925Z,93.60
2019-04-28T05:41:05.887Z,93.20
2019-04-28T05:45:16.290Z,93.10
2019-04-28T05:49:30.998Z,93.00
2019-04-28T05:53:53.799Z,93.00
2019-04-28T05:58:09.845Z,92.80
2019-04-28T06:02:27.838Z,92.60
2019-04-28T06:06:40.504Z,92.80
2019-04-28T06:10:51.124Z,92.50
2019-04-28T06:15:01.405Z,92.10
2019-04-28T06:19:12.474Z,91.90
2019-04-28T06:23:22.807Z,90.20
2019-04-28T06:27:33.325Z,85.60
2019-04-28T06:31:43.664Z,84.00
2019-04-28T06:35:53.974Z,85.60
2019-04-28T06:40:07.412Z,83.70
2019-04-28T06:44:18.582Z,83.80
2019-04-28T06:48:28.959Z,84.40
2019-04-28T06:52:39.331Z,86.20
2019-04-28T06:56:49.668Z,86.90
2019-04-28T07:01:02.884Z,88.10
2019-04-28T07:05:13.331Z,88.90
2019-04-28T07:09:23.725Z,89.30
2019-04-28T07:13:34.067Z,89.50
2019-04-28T07:17:44.461Z,89.90
2019-04-28T07:21:59.425Z,88.30
2019-04-28T07:26:09.800Z,88.10
2019-04-28T07:30:20.127Z,87.50
2019-04-28T07:34:30.522Z,87.50
2019-04-28T07:38:40.824Z,87.10
2019-04-28T07:42:51.129Z,86.90
2019-04-28T07:47:01.561Z,86.70
2019-04-28T07:51:12.139Z,87.70
2019-04-28T07:55:22.569Z,88.40
2019-04-28T07:59:32.929Z,89.20
2019-04-28T08:03:49.697Z,90.20
2019-04-28T08:07:55.989Z,90.80
2019-04-28T08:12:07.164Z,91.40
2019-04-28T08:16:17.464Z,91.00
2019-04-28T08:20:27.980Z,91.20
2019-04-28T08:24:38.580Z,91.80
2019-04-28T08:28:48.895Z,91.80
2019-04-28T08:33:09.580Z,92.40
2019-04-28T08:37:19.944Z,92.50
2019-04-28T08:41:30.252Z,92.60
2019-04-28T08:45:40.669Z,92.00
2019-04-28T08:49:51.486Z,92.40
2019-04-28T08:54:01.782Z,92.10
2019-04-28T08:58:12.162Z,91.60
2019-04-28T09:02:22.481Z,91.40
2019-04-28T09:06:32.774Z,91.20
2019-04-28T09:10:43.079Z,90.70
2019-04-28T09:14:54.213Z,89.50
2019-04-28T09:19:04.594Z,88.30
2019-04-28T09:23:15.038Z,86.00
2019-04-28T09:27:25.550Z,85.70
2019-04-28T09:31:35.878Z,85.60
2019-04-28T09:35:46.577Z,85.40
2019-04-28T09:40:01.465Z,85.90
2019-04-28T09:44:13.942Z,84.30
2019-04-28T09:48:24.342Z,79.60
2019-04-28T09:52:34.639Z,76.00
2019-04-28T09:56:55.993Z,70.20
2019-04-28T10:00:58.137Z,68.30
2019-04-28T10:05:10.160Z,67.90
2019-04-28T10:09:20.500Z,68.00
2019-04-28T10:13:31.051Z,69.30
2019-04-28T10:17:44.453Z,71.60
2019-04-28T10:21:54.777Z,73.40
2019-04-28T10:26:05.264Z,74.60
2019-04-28T10:30:15.928Z,76.10
2019-04-28T10:34:26.252Z,77.10
2019-04-28T10:38:38.384Z,77.10
2019-04-28T10:42:48.698Z,78.50
2019-04-28T10:46:59.060Z,76.80
2019-04-28T10:51:09.407Z,72.90
2019-04-28T10:55:19.721Z,67.80
2019-04-28T10:59:30.008Z,66.50
2019-04-28T11:03:42.221Z,64.30
2019-04-28T11:07:54.517Z,64.50
2019-04-28T11:12:06.474Z,64.20
2019-04-28T11:16:18.529Z,65.10
2019-04-28T11:20:29.210Z,66.90
2019-04-28T11:24:39.526Z,67.10
2019-04-28T11:28:50.098Z,68.80
2019-04-28T11:33:07.672Z,69.80
2019-04-28T11:37:18.244Z,69.10
2019-04-28T11:41:28.656Z,69.40
2019-04-28T11:45:39.525Z,69.40
2019-04-28T11:49:49.944Z,65.50
2019-04-28T11:54:00.239Z,63.50
2019-04-28T11:58:10.793Z,63.90
2019-04-28T12:02:21.200Z,62.50
2019-04-28T12:06:31.591Z,62.40
2019-04-28T12:10:55.447Z,59.30
2019-04-28T12:15:24.315Z,58.10
2019-04-28T12:19:37.099Z,57.50
2019-04-28T12:23:48.142Z,56.20
2019-04-28T12:27:58.660Z,55.90
2019-04-28T12:32:08.991Z,56.70
2019-04-28T12:36:19.608Z,54.60
2019-04-28T12:40:29.923Z,54.80
2019-04-28T12:44:40.559Z,55.10
2019-04-28T12:48:52.742Z,52.90
2019-04-28T12:53:03.047Z,50.60
2019-04-28T12:57:13.428Z,51.60
2019-04-28T13:01:41.665Z,51.20
2019-04-28T13:06:01.615Z,50.90
2019-04-28T13:10:06.986Z,51.40
2019-04-28T13:14:18.085Z,52.10
2019-04-28T13:18:28.499Z,52.80
2019-04-28T13:22:39.608Z,53.40
2019-04-28T13:26:52.253Z,54.80
2019-04-28T13:31:02.287Z,54.00
2019-04-28T13:35:12.955Z,54.10
2019-04-28T13:39:24.901Z,53.60
2019-04-28T13:43:35.221Z,53.70
2019-04-28T13:47:45.593Z,54.80
2019-04-28T13:51:55.924Z,55.90
2019-04-28T13:56:06.271Z,55.80
2019-04-28T14:00:37.538Z,55.10
2019-04-28T14:04:49.560Z,55.10
2019-04-28T14:08:59.848Z,55.40
2019-04-28T14:13:10.155Z,55.20
2019-04-28T14:17:20.613Z,56.20
2019-04-28T14:21:31.878Z,57.00
2019-04-28T14:25:42.148Z,54.60
2019-04-28T14:29:52.802Z,52.00
2019-04-28T14:34:03.247Z,52.60
2019-04-28T14:38:13.697Z,54.20
2019-04-28T14:42:24.172Z,52.40
2019-04-28T14:46:34.582Z,52.10
2019-04-28T14:50:44.951Z,53.40
2019-04-28T14:54:55.224Z,54.30
2019-04-28T14:59:05.666Z,54.30
2019-04-28T15:03:17.255Z,54.70
2019-04-28T15:07:38.427Z,54.90
2019-04-28T15:11:50.379Z,54.90
2019-04-28T15:16:01.042Z,55.30
2019-04-28T15:20:11.534Z,55.20
2019-04-28T15:24:21.877Z,55.00
2019-04-28T15:28:32.117Z,54.00
2019-04-28T15:32:42.413Z,53.60
2019-04-28T15:36:52.624Z,53.20
2019-04-28T15:41:04.252Z,53.70
2019-04-28T15:45:15.680Z,54.60
2019-04-28T15:49:26.340Z,54.80
2019-04-28T15:53:36.828Z,54.40
2019-04-28T15:57:47.981Z,53.00
2019-04-28T16:01:58.364Z,52.60
2019-04-28T16:06:09.041Z,50.60
2019-04-28T16:10:19.413Z,50.70
2019-04-28T16:14:29.744Z,50.90
2019-04-28T16:18:40.070Z,52.70
2019-04-28T16:22:50.597Z,52.90
2019-04-28T16:27:00.938Z,52.80
2019-04-28T16:41:54.519Z,54.60
2019-04-28T16:46:04.898Z,55.10
2019-04-28T16:50:15.340Z,55.90
2019-04-28T16:54:25.710Z,56.90
2019-04-28T16:58:43.492Z,57.20
2019-04-28T17:02:54.088Z,57.90
2019-04-28T17:07:04.555Z,57.30
2019-04-28T17:11:14.828Z,57.90
2019-04-28T17:15:25.031Z,59.50
2019-04-28T17:19:35.427Z,60.30
2019-04-28T17:23:45.719Z,60.80
2019-04-28T17:27:56.041Z,61.90
2019-04-28T17:32:06.356Z,62.20
2019-04-28T17:36:16.783Z,62.80
2019-04-28T17:40:28.464Z,62.50
2019-04-28T17:44:38.839Z,63.40
2019-04-28T17:48:53.665Z,64.60
2019-04-28T17:53:05.910Z,65.50
2019-04-28T17:57:16.229Z,66.90
2019-04-28T18:01:37.678Z,68.30
2019-04-28T18:05:49.729Z,68.90
2019-04-28T18:10:01.619Z,69.00
2019-04-28T18:14:12.557Z,69.10
2019-04-28T18:18:39.596Z,70.10
2019-04-28T18:22:50.055Z,70.50
2019-04-28T18:27:00.768Z,71.10
2019-04-28T18:31:38.482Z,71.60
2019-04-28T18:35:50.717Z,72.20
2019-04-28T18:40:02.758Z,72.90
2019-04-28T18:44:21.255Z,73.70
2019-04-28T18:48:31.720Z,74.30
2019-04-28T18:52:42.972Z,75.00
2019-04-28T18:56:53.303Z,75.50
2019-04-28T19:01:11.323Z,75.90
2019-04-28T19:05:23.525Z,76.50
2019-04-28T19:09:48.112Z,76.70
2019-04-28T19:14:03.261Z,75.70
2019-04-28T19:18:21.317Z,75.40
2019-04-28T19:22:33.264Z,76.30
2019-04-28T19:26:43.590Z,76.90
2019-04-28T19:30:53.909Z,77.70
2019-04-28T19:35:04.450Z,78.10
2019-04-28T19:39:14.766Z,78.30
2019-04-28T19:43:25.186Z,78.70
2019-04-28T19:47:35.538Z,78.90
2019-04-28T19:51:45.744Z,79.30
2019-04-28T19:55:57.710Z,79.60
2019-04-28T20:00:09.722Z,79.80
2019-04-28T20:04:20.041Z,80.10
2019-04-28T20:08:30.352Z,80.20
2019-04-28T20:12:41.463Z,80.30
2019-04-28T20:16:52.233Z,80.50
2019-04-28T20:21:02.640Z,80.80
2019-04-28T20:25:13.386Z,80.90
2019-04-28T20:29:23.739Z,82.40
2019-04-28T20:33:34.033Z,81.70
2019-04-28T20:37:52.921Z,81.70
2019-04-28T20:42:04.969Z,81.40
2019-04-28T20:46:15.299Z,80.90
2019-04-28T20:50:25.605Z,81.40
2019-04-28T20:54:35.944Z,81.70
2019-04-28T20:58:46.256Z,81.70
2019-04-28T21:02:56.597Z,81.50
2019-04-28T21:07:06.938Z,81.70
2019-04-28T21:11:17.253Z,81.80
2019-04-28T21:15:27.541Z,81.90
2019-04-28T21:19:37.861Z,82.60
2019-04-28T21:23:48.160Z,82.40
2019-04-28T21:27:58.747Z,82.80
2019-04-28T21:32:09.169Z,83.40
2019-04-28T21:36:19.496Z,84.00
2019-04-28T21:40:30.080Z,84.20
2019-04-28T21:44:42.480Z,84.30
2019-04-28T21:48:54.427Z,84.50
2019-04-28T21:53:04.726Z,85.20
2019-04-28T21:57:15.033Z,85.20
2019-04-28T22:01:25.844Z,85.70
2019-04-28T22:05:36.623Z,85.50
2019-04-28T22:09:47.045Z,85.70
2019-04-28T22:13:57.442Z,85.90
2019-04-28T22:18:07.740Z,86.30
2019-04-28T22:22:18.318Z,86.40
2019-04-28T22:26:44.728Z,86.50
2019-04-28T22:30:55.032Z,86.40
2019-04-28T22:35:05.773Z,86.10
2019-04-28T22:39:16.607Z,86.00
2019-04-28T22:43:26.921Z,86.00
2019-04-28T22:47:37.129Z,86.10
2019-04-28T22:51:47.480Z,86.10
2019-04-28T22:55:59.426Z,86.60
2019-04-28T23:00:24.389Z,86.80
2019-04-28T23:04:45.407Z,87.20
2019-04-28T23:08:55.851Z,87.90
2019-04-28T23:13:06.189Z,88.30
2019-04-28T23:17:18.303Z,88.50
2019-04-28T23:21:39.086Z,88.80
2019-04-28T23:25:49.410Z,89.10
2019-04-28T23:29:59.721Z,89.20
2019-04-28T23:34:10.158Z,89.50
2019-04-28T23:38:20.607Z,89.60
2019-04-28T23:42:35.132Z,90.30
2019-04-28T23:46:58.802Z,90.00
2019-04-28T23:51:10.693Z,90.10
2019-04-28T23:55:21.257Z,90.30
2019-04-28T23:59:31.550Z,90.50
